Time;durP1;ratioP1;P1;durP2;ratioP2;P2;SDS_P1;SDS_P2;PMS_P1;PMS_P2;Temp;Humidity;BMP_temperature;BMP_pressure;BME280_temperature;BME280_humidity;BME280_pressure;Samples;Min_cycle;Max_cycle;Signal;HPM_P1;HPM_P2
2023/09/20 00:01:40;;;;;;;0.57;0.57;;;16.80;70.20;;;;;;5032087;28;19917;-71
2023/09/20 00:04:07;;;;;;;0.10;0.10;;;16.70;70.10;;;;;;5048145;28;20505;-71
2023/09/20 00:06:33;;;;;;;1.08;0.55;;;16.80;69.70;;;;;;5032604;28;20432;-70
2023/09/20 00:09:04;;;;;;;0.13;0.13;;;16.80;69.90;;;;;;5032818;28;20046;-70
2023/09/20 00:11:30;;;;;;;1.02;0.20;;;16.80;70.60;;;;;;5030874;28;20045;-70
2023/09/20 00:13:58;;;;;;;0.20;0.20;;;16.70;70.50;;;;;;5031791;28;20103;-70
2023/09/20 00:16:24;;;;;;;0.90;0.50;;;16.70;70.30;;;;;;5032402;28;20052;-71
2023/09/20 00:18:50;;;;;;;0.20;0.20;;;16.70;70.30;;;;;;5033128;28;20045;-70
2023/09/20 00:21:16;;;;;;;0.10;0.10;;;16.70;70.30;;;;;;5032169;28;20038;-71
2023/09/20 00:23:42;;;;;;;0.13;0.13;;;16.70;70.10;;;;;;5048153;28;20517;-70
2023/09/20 00:26:10;;;;;;;0.20;0.20;;;16.60;69.90;;;;;;5032353;28;20049;-70
2023/09/20 00:28:38;;;;;;;0.30;0.30;;;16.50;69.40;;;;;;5031561;28;20056;-70
2023/09/20 00:31:05;;;;;;;0.20;0.20;;;16.50;69.30;;;;;;5030832;28;20045;-70
2023/09/20 00:33:32;;;;;;;1.58;0.77;;;16.50;69.40;;;;;;5031545;28;20117;-70
2023/09/20 00:35:58;;;;;;;1.73;0.50;;;16.50;69.30;;;;;;5030947;28;20132;-71
2023/09/20 00:38:24;;;;;;;0.38;0.38;;;16.50;69.30;;;;;;5032602;28;20037;-71
2023/09/20 00:40:52;;;;;;;0.30;0.30;;;16.50;69.30;;;;;;5031723;28;20513;-71
2023/09/20 00:43:37;;;;;;;0.65;0.20;;;16.50;69.60;;;;;;5032549;28;20080;-70
2023/09/20 00:46:04;;;;;;;0.20;0.20;;;16.40;69.30;;;;;;5032164;28;20041;-70
2023/09/20 00:48:31;;;;;;;0.22;0.20;;;16.50;70.10;;;;;;5033158;28;20038;-71
2023/09/20 00:50:58;;;;;;;0.65;0.47;;;16.50;69.80;;;;;;5034424;28;20091;-70
2023/09/20 00:53:25;;;;;;;0.10;0.10;;;16.60;70.60;;;;;;5036689;28;20034;-71
2023/09/20 00:55:52;;;;;;;0.30;0.30;;;16.60;70.80;;;;;;5034834;28;20038;-71
2023/09/20 00:58:20;;;;;;;0.52;0.25;;;16.70;71.30;;;;;;5035185;28;20034;-70
2023/09/20 01:00:46;;;;;;;0.73;0.57;;;16.70;71.00;;;;;;5035693;28;20591;-71
2023/09/20 01:03:35;;;;;;;0.35;0.30;;;16.70;71.60;;;;;;5035012;28;20079;-70
2023/09/20 01:08:46;;;;;;;0.88;0.88;;;16.80;71.90;;;;;;5036603;28;20064;-70
2023/09/20 01:11:13;;;;;;;0.20;0.20;;;16.80;71.80;;;;;;5034176;28;20091;-71
2023/09/20 01:13:40;;;;;;;0.20;0.20;;;16.80;71.30;;;;;;5034989;28;20033;-70
2023/09/20 01:16:09;;;;;;;0.52;0.15;;;16.90;71.90;;;;;;5034604;28;20025;-70
2023/09/20 01:18:35;;;;;;;0.28;0.20;;;16.90;71.90;;;;;;5034952;28;20042;-70
2023/09/20 01:21:02;;;;;;;0.30;0.30;;;17.00;71.90;;;;;;5035003;28;20125;-70
2023/09/20 01:23:28;;;;;;;0.10;0.10;;;17.00;71.90;;;;;;5036047;28;20041;-70
2023/09/20 01:25:56;;;;;;;0.20;0.20;;;17.00;71.70;;;;;;5035801;28;20084;-70
2023/09/20 01:28:25;;;;;;;0.60;0.40;;;17.00;71.70;;;;;;5034624;28;20068;-70
2023/09/20 01:30:51;;;;;;;0.68;0.15;;;17.00;71.80;;;;;;5034967;28;20037;-70
2023/09/20 01:33:17;;;;;;;0.20;0.20;;;17.10;71.90;;;;;;5035785;28;20486;-70
2023/09/20 01:35:45;;;;;;;;;;;17.10;71.80;;;;;;5035938;28;20047;-70
2023/09/20 01:38:11;;;;;;;0.35;0.35;;;17.10;72.00;;;;;;5035848;28;19948;-70
2023/09/20 01:40:39;;;;;;;0.47;0.35;;;17.10;72.10;;;;;;5034965;28;20030;-70
2023/09/20 01:43:09;;;;;;;0.20;0.20;;;17.10;72.50;;;;;;5035986;28;20038;-70
2023/09/20 01:45:36;;;;;;;0.20;0.20;;;17.00;72.70;;;;;;5033772;28;20029;-70
2023/09/20 01:48:08;;;;;;;0.63;0.50;;;17.00;72.70;;;;;;5050937;28;20044;-70
2023/09/20 01:50:36;;;;;;;2.72;0.30;;;17.00;72.70;;;;;;5033308;28;20375;-71
2023/09/20 01:53:08;;;;;;;0.35;0.35;;;17.00;73.00;;;;;;5035591;28;20025;-70
2023/09/20 01:55:37;;;;;;;0.20;0.20;;;17.00;72.90;;;;;;5033962;28;20029;-70
2023/09/20 01:58:07;;;;;;;0.25;0.25;;;17.00;73.00;;;;;;5035530;28;20030;-70
2023/09/20 02:00:40;;;;;;;0.70;0.70;;;16.90;73.30;;;;;;5032024;28;20120;-70
2023/09/20 02:03:11;;;;;;;1.02;0.45;;;16.90;72.90;;;;;;5034139;28;20033;-71
2023/09/20 02:05:37;;;;;;;0.20;0.20;;;16.90;72.70;;;;;;5033776;28;20470;-70
2023/09/20 02:08:05;;;;;;;0.20;0.20;;;16.80;72.90;;;;;;5034060;28;20323;-70
2023/09/20 02:10:32;;;;;;;0.20;0.20;;;16.80;72.70;;;;;;5034053;28;20034;-70
2023/09/20 02:12:59;;;;;;;0.40;0.25;;;16.80;73.00;;;;;;5033900;28;20038;-70
2023/09/20 02:15:28;;;;;;;0.10;0.10;;;16.80;72.70;;;;;;5033288;28;20497;-70
2023/09/20 02:17:54;;;;;;;0.30;0.30;;;16.70;73.30;;;;;;5033847;28;20030;-70
2023/09/20 02:20:23;;;;;;;0.20;0.20;;;16.70;73.40;;;;;;5032613;28;20134;-70
2023/09/20 02:22:51;;;;;;;0.65;0.60;;;16.70;73.00;;;;;;5034908;28;20041;-70
2023/09/20 02:25:20;;;;;;;0.20;0.20;;;16.70;73.10;;;;;;5034325;28;20034;-71
2023/09/20 02:28:07;;;;;;;0.28;0.20;;;16.70;73.10;;;;;;5034906;28;20042;-70
2023/09/20 02:30:36;;;;;;;0.30;0.30;;;16.60;73.10;;;;;;5033820;28;20037;-70
2023/09/20 02:35:50;;;;;;;0.30;0.30;;;16.60;73.00;;;;;;5033231;28;20390;-70
2023/09/20 02:38:16;;;;;;;0.17;0.10;;;16.60;72.80;;;;;;5034810;28;20041;-70
2023/09/20 02:40:46;;;;;;;0.10;0.10;;;16.60;72.80;;;;;;5032428;28;20034;-70
2023/09/20 02:43:13;;;;;;;0.15;0.13;;;16.60;72.80;;;;;;5034641;28;20146;-70
2023/09/20 02:45:40;;;;;;;0.60;0.30;;;16.50;73.00;;;;;;5032876;28;20076;-70
2023/09/20 02:48:09;;;;;;;0.75;0.30;;;16.50;72.80;;;;;;5033080;28;20405;-70
2023/09/20 02:50:36;;;;;;;0.10;0.10;;;16.40;72.30;;;;;;5033334;28;20034;-70
2023/09/20 02:53:03;;;;;;;0.63;0.40;;;16.30;73.40;;;;;;5033245;28;20513;-70
2023/09/20 02:55:31;;;;;;;0.38;0.22;;;16.30;73.40;;;;;;5032676;28;20025;-70
2023/09/20 02:57:57;;;;;;;0.45;0.45;;;16.30;73.20;;;;;;5033068;28;20033;-70
2023/09/20 03:00:27;;;;;;;;;;;16.30;73.20;;;;;;5032613;28;20117;-70
2023/09/20 03:02:56;;;;;;;0.20;0.20;;;16.20;72.60;;;;;;5034262;28;20363;-70
2023/09/20 03:05:35;;;;;;;0.30;0.25;;;16.00;72.50;;;;;;5032410;28;20378;-70
2023/09/20 03:08:04;;;;;;;0.10;0.10;;;15.90;72.50;;;;;;5032821;28;20083;-70
2023/09/20 03:10:31;;;;;;;0.68;0.68;;;15.90;72.80;;;;;;5031647;28;20037;-70
2023/09/20 03:12:59;;;;;;;0.20;0.20;;;15.90;72.90;;;;;;5032830;28;20037;-70
2023/09/20 03:15:27;;;;;;;1.42;0.68;;;15.90;72.40;;;;;;5033432;28;20029;-70
2023/09/20 03:17:57;;;;;;;0.63;0.38;;;15.80;72.10;;;;;;5032765;28;20034;-70
2023/09/20 03:20:24;;;;;;;2.72;0.43;;;15.80;72.20;;;;;;5032826;28;21915;-70
2023/09/20 03:23:10;;;;;;;0.13;0.13;;;15.80;72.20;;;;;;5032481;28;20049;-70
2023/09/20 03:25:36;;;;;;;0.10;0.10;;;15.70;72.10;;;;;;5032591;28;20441;-70
2023/09/20 03:28:04;;;;;;;0.60;0.52;;;15.60;72.50;;;;;;5032507;28;20060;-70
2023/09/20 03:30:31;;;;;;;0.20;0.20;;;15.60;72.70;;;;;;5032708;28;20037;-70
2023/09/20 03:32:58;;;;;;;0.20;0.20;;;15.60;72.10;;;;;;5032599;28;20280;-70
2023/09/20 03:35:24;;;;;;;0.20;0.20;;;15.70;72.10;;;;;;5031843;28;20056;-70
2023/09/20 03:37:52;;;;;;;0.10;0.10;;;15.70;72.50;;;;;;5032302;28;20397;-70
2023/09/20 03:43:03;;;;;;;1.20;0.15;;;15.70;72.80;;;;;;5032445;28;20040;-70
2023/09/20 03:45:29;;;;;;;0.73;0.50;;;15.70;72.90;;;;;;5032921;28;20037;-70
2023/09/20 03:47:57;;;;;;;3.10;0.47;;;15.80;72.80;;;;;;5032177;28;20108;-70
2023/09/20 03:50:23;;;;;;;0.10;0.10;;;15.70;72.60;;;;;;5032323;28;20528;-70
2023/09/20 03:52:50;;;;;;;0.75;0.50;;;15.70;71.90;;;;;;5033152;28;20033;-70
2023/09/20 03:55:25;;;;;;;0.20;0.20;;;15.70;72.70;;;;;;5032708;28;20072;-70
2023/09/20 03:57:51;;;;;;;0.55;0.40;;;15.70;72.60;;;;;;5031809;28;20120;-70
2023/09/20 04:00:19;;;;;;;0.20;0.20;;;15.70;72.50;;;;;;5046946;28;20030;-70
2023/09/20 04:02:46;;;;;;;0.30;0.30;;;15.70;72.60;;;;;;5014838;28;20026;-70
2023/09/20 04:05:14;;;;;;;0.30;0.20;;;15.70;72.60;;;;;;5032127;28;20033;-70
2023/09/20 04:07:41;;;;;;;1.63;0.45;;;15.70;72.80;;;;;;5030940;28;20026;-70
2023/09/20 04:10:08;;;;;;;0.20;0.20;;;15.60;72.40;;;;;;5030091;28;20030;-70
2023/09/20 04:12:38;;;;;;;0.10;0.10;;;15.70;73.10;;;;;;5030882;28;20533;-70
2023/09/20 04:15:06;;;;;;;0.10;0.10;;;15.70;73.10;;;;;;5030616;28;20061;-70
2023/09/20 04:17:35;;;;;;;0.20;0.20;;;15.80;73.10;;;;;;5031735;28;20536;-70
2023/09/20 04:20:12;;;;;;;0.17;0.17;;;15.80;73.20;;;;;;5030301;28;20559;-70
2023/09/20 04:22:41;;;;;;;;;;;15.80;73.50;;;;;;5030143;28;20145;-70
2023/09/20 04:25:10;;;;;;;0.15;0.15;;;15.80;73.40;;;;;;5030259;28;20341;-70
2023/09/20 04:27:36;;;;;;;0.10;0.10;;;15.70;73.20;;;;;;5014454;28;20555;-70
2023/09/20 04:30:03;;;;;;;0.20;0.20;;;15.70;73.30;;;;;;5031927;28;20424;-70
2023/09/20 04:32:29;;;;;;;0.47;0.15;;;15.80;73.20;;;;;;5029849;28;20042;-70
2023/09/20 04:34:56;;;;;;;0.30;0.30;;;15.80;73.50;;;;;;5031693;28;20379;-70
2023/09/20 04:37:28;;;;;;;0.10;0.10;;;15.80;73.40;;;;;;5031267;28;20034;-70
2023/09/20 04:39:54;;;;;;;1.30;0.80;;;15.80;73.20;;;;;;5030323;28;20076;-70
2023/09/20 04:42:21;;;;;;;0.20;0.20;;;15.90;73.30;;;;;;5029229;28;20061;-70
2023/09/20 04:44:49;;;;;;;0.40;0.30;;;15.90;73.20;;;;;;5030457;28;20045;-70
2023/09/20 04:47:17;;;;;;;0.85;0.50;;;16.00;73.10;;;;;;5031773;28;20429;-70
2023/09/20 04:49:44;;;;;;;0.70;0.32;;;16.00;72.90;;;;;;5032018;28;20041;-70
2023/09/20 04:52:11;;;;;;;0.43;0.22;;;16.00;72.50;;;;;;5029341;28;20033;-70
2023/09/20 04:54:37;;;;;;;0.22;0.20;;;16.10;72.60;;;;;;5030255;28;20425;-70
2023/09/20 04:59:50;;;;;;;0.10;0.10;;;16.10;73.20;;;;;;5032076;28;20397;-70
2023/09/20 05:02:16;;;;;;;0.55;0.38;;;16.10;73.40;;;;;;5030576;28;20113;-70
2023/09/20 05:04:42;;;;;;;0.15;0.15;;;16.20;73.50;;;;;;5032082;28;20037;-70
2023/09/20 05:07:10;;;;;;;;;;;16.30;73.50;;;;;;5047072;28;20033;-70
2023/09/20 05:09:37;;;;;;;0.32;0.22;;;16.20;73.40;;;;;;5030526;28;19976;-70
2023/09/20 05:12:04;;;;;;;0.60;0.60;;;16.10;72.80;;;;;;5029903;28;20033;-70
2023/09/20 05:14:31;;;;;;;0.10;0.10;;;16.30;73.50;;;;;;5030792;28;20486;-70
2023/09/20 05:16:57;;;;;;;0.20;0.20;;;16.30;73.50;;;;;;5030263;28;20025;-70
2023/09/20 05:19:23;;;;;;;0.30;0.30;;;16.40;73.40;;;;;;5030453;28;20049;-70
2023/09/20 05:21:49;;;;;;;;;;;16.50;73.40;;;;;;5030201;28;20133;-70
2023/09/20 05:24:15;;;;;;;0.75;0.45;;;16.50;73.30;;;;;;5031978;28;19947;-70
2023/09/20 05:26:41;;;;;;;0.20;0.20;;;16.50;73.20;;;;;;5031321;28;20316;-70
2023/09/20 05:29:07;;;;;;;0.52;0.22;;;16.60;73.20;;;;;;5031585;28;20103;-70
2023/09/20 05:31:33;;;;;;;1.08;0.60;;;16.60;73.30;;;;;;5028834;28;20478;-70
2023/09/20 05:33:59;;;;;;;0.95;0.38;;;16.70;73.50;;;;;;5031030;28;20039;-70
2023/09/20 05:36:27;;;;;;;0.70;0.52;;;16.70;73.40;;;;;;5033119;28;20033;-70
2023/09/20 05:38:54;;;;;;;0.35;0.30;;;16.80;73.30;;;;;;5035145;28;20045;-70
2023/09/20 05:41:20;;;;;;;0.10;0.10;;;16.80;73.10;;;;;;5032589;28;20116;-70
2023/09/20 05:43:46;;;;;;;0.57;0.38;;;16.90;73.40;;;;;;5033464;28;20567;-70
2023/09/20 05:46:13;;;;;;;0.85;0.32;;;16.90;73.40;;;;;;5033177;28;20038;-70
2023/09/20 05:48:40;;;;;;;1.10;0.90;;;17.00;73.40;;;;;;5034932;28;20042;-70
2023/09/20 05:51:08;;;;;;;0.88;0.30;;;17.00;73.20;;;;;;5033814;28;20537;-70
2023/09/20 05:53:34;;;;;;;0.55;0.35;;;17.10;73.20;;;;;;5034577;28;20033;-70
2023/09/20 05:56:11;;;;;;;0.17;0.17;;;17.20;72.90;;;;;;5034162;28;20030;-70
2023/09/20 05:58:40;;;;;;;2.10;0.65;;;17.30;72.80;;;;;;5034751;28;20042;-70
2023/09/20 06:01:09;;;;;;;0.15;0.15;;;17.40;72.30;;;;;;5033520;28;20034;-70
2023/09/20 06:03:36;;;;;;;0.90;0.88;;;17.50;71.70;;;;;;5034468;28;20034;-70
2023/09/20 06:06:07;;;;;;;0.20;0.10;;;17.60;72.00;;;;;;5032770;28;20524;-70
2023/09/20 06:08:35;;;;;;;0.57;0.38;;;17.60;71.50;;;;;;5033115;28;20072;-70
2023/09/20 06:13:46;;;;;;;0.75;0.60;;;17.80;71.40;;;;;;5033229;28;20054;-70
2023/09/20 06:16:12;;;;;;;0.25;0.25;;;17.90;71.80;;;;;;5032598;28;20080;-70
2023/09/20 06:18:39;;;;;;;0.20;0.20;;;18.00;71.70;;;;;;5034303;28;20474;-70
2023/09/20 06:21:09;;;;;;;0.10;0.10;;;18.00;71.50;;;;;;5033091;28;20033;-70
2023/09/20 06:23:35;;;;;;;0.98;0.68;;;18.10;71.20;;;;;;5034207;28;20384;-70
2023/09/20 06:26:20;;;;;;;0.45;0.43;;;18.20;71.10;;;;;;5032392;28;20428;-70
2023/09/20 06:28:47;;;;;;;0.28;0.25;;;18.30;71.10;;;;;;5032657;28;20060;-70
2023/09/20 06:31:14;;;;;;;0.10;0.10;;;18.30;71.00;;;;;;5031358;28;20065;-70
2023/09/20 06:33:41;;;;;;;0.10;0.10;;;18.30;70.00;;;;;;5032748;28;20034;-70
2023/09/20 06:36:07;;;;;;;0.85;0.45;;;18.30;71.10;;;;;;5032468;28;20067;-70
2023/09/20 06:38:34;;;;;;;0.28;0.25;;;18.40;70.80;;;;;;5032557;28;20389;-70
2023/09/20 06:41:00;;;;;;;0.20;0.20;;;18.50;70.70;;;;;;5033033;28;20037;-70
2023/09/20 06:43:27;;;;;;;0.30;0.30;;;18.70;69.60;;;;;;5034063;28;20303;-70
2023/09/20 06:45:53;;;;;;;0.20;0.17;;;18.90;69.90;;;;;;5032875;28;20034;-70
2023/09/20 06:48:24;;;;;;;;;;;19.20;68.80;;;;;;5033058;28;20065;-70
2023/09/20 06:50:52;;;;;;;0.20;0.20;;;19.30;68.50;;;;;;5031317;28;19928;-70
2023/09/20 06:53:19;;;;;;;0.52;0.20;;;19.30;68.10;;;;;;5048801;28;20481;-71
2023/09/20 06:55:48;;;;;;;0.50;0.40;;;19.50;67.90;;;;;;5031722;28;20033;-71
2023/09/20 06:58:14;;;;;;;0.17;0.17;;;19.70;67.50;;;;;;5032306;28;20363;-70
2023/09/20 07:00:40;;;;;;;;;;;19.80;67.20;;;;;;5032951;28;20037;-70
2023/09/20 07:03:06;;;;;;;0.10;0.10;;;19.90;67.60;;;;;;5033202;28;19956;-71
2023/09/20 07:05:33;;;;;;;0.17;0.17;;;20.00;66.90;;;;;;5032803;28;20073;-71
2023/09/20 07:07:59;;;;;;;0.20;0.20;;;20.10;67.00;;;;;;5032208;28;20430;-70
2023/09/20 07:10:46;;;;;;;0.10;0.10;;;20.20;67.10;;;;;;5031019;28;20512;-70
2023/09/20 07:13:17;;;;;;;0.22;0.22;;;20.30;66.70;;;;;;5033403;28;20057;-71
2023/09/20 07:15:43;;;;;;;0.10;0.10;;;20.50;66.50;;;;;;5031734;28;20042;-71
2023/09/20 07:18:13;;;;;;;0.32;0.28;;;20.60;66.50;;;;;;5033132;28;20068;-71
2023/09/20 07:20:41;;;;;;;0.20;0.20;;;20.80;66.10;;;;;;5030610;28;20041;-70
2023/09/20 07:23:09;;;;;;;0.45;0.30;;;20.90;65.10;;;;;;5031657;28;20063;-71
2023/09/20 07:25:37;;;;;;;0.35;0.20;;;21.20;64.80;;;;;;5031214;28;20079;-71
2023/09/20 07:28:07;;;;;;;0.77;0.30;;;21.30;64.50;;;;;;5031581;28;20069;-71
2023/09/20 07:30:39;;;;;;;0.25;0.25;;;21.20;64.20;;;;;;5031663;28;20041;-70
2023/09/20 07:33:11;;;;;;;0.30;0.30;;;21.50;64.10;;;;;;5048437;28;20056;-70
2023/09/20 07:35:58;;;;;;;0.65;0.45;;;21.60;62.80;;;;;;5031038;28;20478;-71
2023/09/20 07:38:26;;;;;;;0.75;0.47;;;21.70;63.50;;;;;;5014878;28;20041;-71
2023/09/20 07:40:53;;;;;;;0.30;0.30;;;21.60;63.70;;;;;;5031563;28;20033;-71
2023/09/20 07:43:20;;;;;;;0.38;0.35;;;21.90;63.80;;;;;;5031400;28;20041;-71
2023/09/20 07:45:48;;;;;;;0.20;0.20;;;22.90;61.90;;;;;;5031080;28;20069;-71
2023/09/20 07:48:21;;;;;;;0.10;0.10;;;23.90;59.70;;;;;;5032514;28;20116;-71
2023/09/20 07:50:51;;;;;;;0.50;0.28;;;24.80;57.80;;;;;;5030343;28;20111;-71
2023/09/20 07:53:20;;;;;;;0.30;0.30;;;25.20;55.90;;;;;;5031413;28;20509;-71
2023/09/20 07:56:05;;;;;;;0.32;0.30;;;25.00;56.20;;;;;;5030854;28;20037;-71
2023/09/20 07:58:32;;;;;;;0.32;0.32;;;25.30;56.10;;;;;;5030452;28;20121;-71
2023/09/20 08:00:59;;;;;;;1.10;0.73;;;26.20;53.50;;;;;;5029661;28;20067;-72
2023/09/20 08:03:28;;;;;;;1.00;0.40;;;27.20;49.00;;;;;;5031013;28;20041;-71
2023/09/20 08:05:55;;;;;;;0.30;0.20;;;27.60;48.10;;;;;;5031899;28;20116;-71
2023/09/20 08:08:21;;;;;;;0.85;0.55;;;28.30;47.40;;;;;;5032205;28;20120;-72
2023/09/20 08:10:48;;;;;;;0.10;0.10;;;28.90;43.90;;;;;;5031216;28;20619;-72
2023/09/20 08:13:14;;;;;;;0.20;0.20;;;29.60;43.50;;;;;;5030792;28;20033;-72
2023/09/20 08:15:43;;;;;;;0.30;0.30;;;30.30;41.20;;;;;;5031555;28;20030;-73
2023/09/20 08:21:14;;;;;;;0.28;0.20;;;31.90;37.60;;;;;;5030995;28;20072;-72
2023/09/20 09:00:31;;;;;;;0.35;0.35;;;35.30;28.90;;;;;;5029370;28;20171;-72
2023/09/20 09:03:16;;;;;;;0.85;0.57;;;35.60;28.80;;;;;;5031521;28;20037;-73
2023/09/20 09:05:42;;;;;;;0.30;0.30;;;36.50;27.90;;;;;;5029789;28;20095;-72
2023/09/20 09:08:08;;;;;;;0.30;0.30;;;36.80;27.40;;;;;;5030136;28;20042;-72
2023/09/20 09:10:34;;;;;;;0.50;0.50;;;36.50;27.70;;;;;;5032444;28;20049;-72
2023/09/20 09:13:00;;;;;;;1.30;0.68;;;36.80;27.50;;;;;;5034025;28;20437;-72
2023/09/20 09:15:28;;;;;;;0.60;0.60;;;36.70;27.20;;;;;;5033371;28;20037;-72
2023/09/20 09:17:54;;;;;;;0.45;0.45;;;36.00;28.00;;;;;;5034077;28;20048;-72
2023/09/20 09:20:20;;;;;;;0.88;0.75;;;36.20;27.70;;;;;;5034006;28;20049;-72
2023/09/20 09:22:49;;;;;;;0.50;0.40;;;36.00;28.90;;;;;;5035109;28;20129;-72
2023/09/20 09:25:19;;;;;;;0.40;0.40;;;36.40;27.60;;;;;;5033436;28;20284;-72
2023/09/20 09:27:45;;;;;;;0.63;0.40;;;36.80;26.60;;;;;;5017333;28;20615;-72
2023/09/20 09:30:15;;;;;;;1.50;0.60;;;37.60;26.90;;;;;;5016199;28;20026;-73
2023/09/20 09:32:43;;;;;;;1.85;0.60;;;38.70;25.70;;;;;;5033835;28;20117;-72
2023/09/20 09:35:12;;;;;;;0.40;0.40;;;39.40;24.90;;;;;;5033213;28;20025;-72
2023/09/20 09:37:41;;;;;;;0.40;0.40;;;38.50;25.10;;;;;;5033685;28;20039;-72
2023/09/20 09:40:14;;;;;;;0.40;0.40;;;37.60;26.40;;;;;;5032793;28;20044;-73
2023/09/20 09:42:46;;;;;;;0.57;0.57;;;36.90;26.90;;;;;;5034758;28;20517;-73
2023/09/20 09:45:12;;;;;;;0.50;0.50;;;36.50;27.20;;;;;;5033094;28;20033;-73
2023/09/20 09:47:39;;;;;;;0.50;0.50;;;36.60;27.20;;;;;;5033452;28;20080;-73
2023/09/20 09:52:50;;;;;;;0.60;0.47;;;36.30;27.50;;;;;;5034808;28;20564;-73
2023/09/20 09:55:18;;;;;;;1.13;0.77;;;35.80;27.20;;;;;;5032850;28;20104;-72
2023/09/20 09:57:44;;;;;;;0.95;0.68;;;35.20;28.40;;;;;;5034555;28;20033;-72
2023/09/20 10:00:11;;;;;;;0.70;0.70;;;34.70;27.90;;;;;;5032237;28;20037;-72
2023/09/20 10:02:43;;;;;;;0.95;0.70;;;34.30;29.30;;;;;;5034200;28;20029;-72
2023/09/20 10:05:14;;;;;;;0.40;0.40;;;33.90;29.40;;;;;;5032718;28;20037;-73
2023/09/20 10:07:45;;;;;;;1.48;0.80;;;33.50;30.40;;;;;;5034601;28;20040;-72
2023/09/20 10:10:16;;;;;;;1.13;0.93;;;33.30;30.60;;;;;;5032076;28;20037;-72
2023/09/20 10:15:33;;;;;;;0.28;0.28;;;32.60;31.30;;;;;;5033964;28;20038;-72
2023/09/20 10:18:00;;;;;;;0.38;0.38;;;32.20;32.90;;;;;;5033210;28;20026;-72
2023/09/20 10:21:24;;;;;;;1.15;0.70;;;31.70;33.00;;;;;;5032179;28;20072;-72
2023/09/20 10:24:17;;;;;;;0.40;0.40;;;31.70;33.30;;;;;;5034429;28;20041;-72
2023/09/20 10:26:43;;;;;;;0.73;0.73;;;31.40;34.30;;;;;;5033771;28;20073;-72
2023/09/20 10:29:26;;;;;;;0.55;0.38;;;31.10;35.60;;;;;;5032965;28;20057;-71
2023/09/20 10:35:34;;;;;;;0.30;0.30;;;30.80;35.60;;;;;;5033959;28;20049;-72
2023/09/20 10:41:07;;;;;;;0.70;0.65;;;30.70;36.20;;;;;;5032909;28;20124;-72
2023/09/20 10:43:57;;;;;;;0.47;0.47;;;31.00;36.00;;;;;;5034125;28;20037;-72
2023/09/20 10:46:23;;;;;;;0.47;0.45;;;30.80;36.00;;;;;;5033453;28;20394;-71
2023/09/20 10:48:51;;;;;;;0.50;0.43;;;30.80;36.70;;;;;;5015968;28;20140;-71
2023/09/20 10:52:00;;;;;;;0.55;0.55;;;30.70;36.40;;;;;;5014757;28;20045;-72
2023/09/20 10:54:29;;;;;;;0.40;0.40;;;30.80;36.60;;;;;;5033808;28;20044;-72
2023/09/20 10:59:45;;;;;;;0.30;0.30;;;31.20;36.50;;;;;;5032558;28;20048;-72
2023/09/20 11:02:16;;;;;;;0.30;0.30;;;31.30;35.80;;;;;;5032437;28;20472;-72
2023/09/20 11:04:46;;;;;;;2.60;1.05;;;31.20;35.80;;;;;;5032425;28;20044;-72
2023/09/20 11:07:14;;;;;;;0.93;0.75;;;31.30;36.30;;;;;;5031651;28;20034;-72
2023/09/20 11:09:42;;;;;;;1.38;0.40;;;31.30;36.50;;;;;;5032111;28;20037;-72
2023/09/20 11:12:11;;;;;;;0.45;0.38;;;31.30;36.30;;;;;;5030944;28;20045;-72
2023/09/20 11:14:40;;;;;;;1.15;0.60;;;31.10;36.80;;;;;;5031951;28;20033;-72
2023/09/20 11:17:07;;;;;;;0.73;0.55;;;31.10;37.30;;;;;;5031643;28;20033;-71
2023/09/20 11:19:35;;;;;;;0.57;0.57;;;31.20;36.70;;;;;;5033138;28;20107;-71
2023/09/20 11:22:02;;;;;;;0.40;0.40;;;31.30;36.90;;;;;;5014342;28;20486;-72
2023/09/20 11:24:29;;;;;;;0.38;0.38;;;31.40;36.30;;;;;;5031758;28;20437;-71
2023/09/20 11:26:56;;;;;;;0.25;0.20;;;31.60;36.30;;;;;;5031515;28;20486;-71
2023/09/20 11:29:25;;;;;;;0.35;0.35;;;31.50;35.20;;;;;;5031950;28;20069;-71
2023/09/20 11:31:56;;;;;;;0.40;0.40;;;31.30;35.50;;;;;;5030848;28;20033;-72
2023/09/20 11:34:24;;;;;;;0.47;0.43;;;31.40;35.80;;;;;;5031618;28;20083;-71
2023/09/20 11:36:53;;;;;;;2.63;1.38;;;32.30;34.50;;;;;;5031430;28;20025;-72
2023/09/20 11:39:28;;;;;;;0.47;0.40;;;33.70;31.90;;;;;;5031634;28;20064;-71
2023/09/20 11:42:02;;;;;;;0.28;0.28;;;35.10;30.20;;;;;;5030569;28;20073;-72
2023/09/20 11:44:33;;;;;;;0.30;0.30;;;35.40;29.50;;;;;;5031390;28;20038;-72
2023/09/20 11:47:00;;;;;;;1.05;0.93;;;35.00;30.10;;;;;;5031020;28;20099;-72
2023/09/20 11:49:28;;;;;;;0.20;0.20;;;34.70;30.00;;;;;;5031339;28;20034;-72
2023/09/20 11:51:57;;;;;;;0.30;0.30;;;34.40;30.50;;;;;;5030144;28;20120;-72
2023/09/20 11:54:43;;;;;;;0.70;0.47;;;34.30;31.50;;;;;;5031289;28;20409;-72
2023/09/20 11:57:16;;;;;;;0.57;0.50;;;34.90;30.00;;;;;;5047557;28;20120;-72
2023/09/20 11:59:43;;;;;;;1.05;0.88;;;35.40;29.70;;;;;;5031397;28;20462;-72
2023/09/20 12:02:12;;;;;;;0.40;0.40;;;36.30;28.90;;;;;;5030212;28;20091;-72
2023/09/20 12:04:39;;;;;;;0.60;0.60;;;37.50;26.20;;;;;;5031385;28;20125;-72
2023/09/20 12:07:08;;;;;;;0.60;0.60;;;38.70;24.70;;;;;;5031943;28;20033;-72
2023/09/20 12:09:36;;;;;;;0.55;0.47;;;39.50;24.10;;;;;;5031178;28;20049;-72
2023/09/20 12:12:05;;;;;;;0.95;0.70;;;39.00;24.50;;;;;;5031217;28;20034;-73
2023/09/20 12:14:50;;;;;;;0.60;0.40;;;38.30;25.40;;;;;;5032493;28;20139;-73
2023/09/20 12:17:16;;;;;;;0.47;0.40;;;37.30;26.30;;;;;;5031732;28;20108;-73
2023/09/20 12:19:43;;;;;;;0.73;0.65;;;36.60;27.40;;;;;;5030775;28;20057;-73
2023/09/20 12:22:09;;;;;;;0.98;0.68;;;36.50;27.40;;;;;;5029945;28;20033;-73
2023/09/20 12:24:35;;;;;;;0.30;0.30;;;36.50;27.00;;;;;;5030734;28;20037;-72
2023/09/20 12:27:05;;;;;;;0.57;0.55;;;36.60;27.00;;;;;;5030660;28;20029;-73
2023/09/20 12:29:32;;;;;;;1.65;0.52;;;36.30;27.70;;;;;;5032300;28;20069;-72
2023/09/20 12:31:58;;;;;;;0.32;0.32;;;35.40;28.10;;;;;;5031282;28;20038;-72
2023/09/20 12:34:24;;;;;;;0.43;0.43;;;34.70;29.30;;;;;;5030732;28;20034;-72
2023/09/20 12:36:51;;;;;;;0.50;0.43;;;34.30;30.30;;;;;;5030131;28;20053;-72
2023/09/20 12:39:17;;;;;;;0.32;0.32;;;34.10;31.30;;;;;;5031507;28;20048;-72
2023/09/20 12:41:43;;;;;;;0.60;0.60;;;33.90;31.10;;;;;;5031266;28;20041;-72
2023/09/20 12:44:11;;;;;;;0.52;0.52;;;33.70;31.40;;;;;;5029863;28;20045;-72
2023/09/20 12:46:37;;;;;;;1.83;1.10;;;35.10;30.50;;;;;;5031368;28;20417;-72
2023/09/20 12:49:07;;;;;;;8.43;1.25;;;37.30;27.90;;;;;;5031625;28;20490;-72
2023/09/20 12:51:33;;;;;;;0.90;0.65;;;39.40;25.20;;;;;;5029496;28;20038;-72
2023/09/20 12:53:59;;;;;;;0.55;0.55;;;39.60;24.50;;;;;;5031914;28;20414;-72
2023/09/20 12:56:27;;;;;;;0.40;0.40;;;39.00;24.70;;;;;;5031267;28;20505;-72
2023/09/20 12:58:53;;;;;;;0.47;0.47;;;38.30;25.40;;;;;;5031839;28;20038;-72
2023/09/20 13:01:19;;;;;;;0.50;0.50;;;38.10;25.90;;;;;;5029464;28;20141;-72
2023/09/20 13:03:45;;;;;;;0.52;0.43;;;38.40;25.30;;;;;;5031509;28;20482;-72
2023/09/20 13:08:56;;;;;;;0.30;0.30;;;38.50;25.10;;;;;;5030546;28;20044;-73
2023/09/20 13:11:23;;;;;;;0.30;0.30;;;38.80;25.00;;;;;;5030780;28;20449;-73
2023/09/20 13:13:50;;;;;;;1.23;0.70;;;39.90;23.80;;;;;;5030662;28;20037;-72
2023/09/20 13:16:17;;;;;;;0.50;0.50;;;40.90;22.50;;;;;;5029832;28;20095;-73
2023/09/20 13:18:44;;;;;;;1.27;0.85;;;41.40;22.00;;;;;;5031637;28;20038;-72
2023/09/20 13:21:10;;;;;;;1.05;0.70;;;42.40;20.40;;;;;;5030949;28;20413;-73
2023/09/20 13:23:36;;;;;;;0.45;0.45;;;43.30;19.70;;;;;;5031764;28;20041;-73
2023/09/20 13:28:46;;;;;;;0.60;0.60;;;45.60;17.50;;;;;;5031577;28;20413;-72
2023/09/20 13:31:13;;;;;;;0.88;0.75;;;46.60;17.10;;;;;;5030693;28;20045;-73
2023/09/20 13:33:39;;;;;;;0.52;0.52;;;47.50;15.70;;;;;;5029995;28;20037;-73
2023/09/20 13:36:05;;;;;;;0.65;0.65;;;47.70;15.50;;;;;;5030216;28;20038;-73
2023/09/20 13:38:32;;;;;;;0.73;0.73;;;47.90;15.50;;;;;;5030156;28;20033;-73
2023/09/20 13:40:58;;;;;;;0.68;0.68;;;48.50;15.60;;;;;;5029159;28;20065;-73
2023/09/20 13:43:24;;;;;;;0.70;0.70;;;48.90;15.00;;;;;;5031430;28;20120;-72
2023/09/20 13:45:52;;;;;;;0.75;0.75;;;49.10;15.10;;;;;;5030974;28;20447;-73
2023/09/20 13:48:18;;;;;;;1.13;0.73;;;48.90;14.20;;;;;;5031237;28;20034;-73
2023/09/20 13:50:44;;;;;;;0.80;0.80;;;48.60;15.10;;;;;;5028890;28;20092;-73
2023/09/20 13:53:10;;;;;;;1.55;1.20;;;49.00;15.20;;;;;;5030174;28;20030;-73
2023/09/20 13:55:37;;;;;;;1.10;1.00;;;48.90;14.90;;;;;;5029657;28;20052;-73
2023/09/20 13:58:03;;;;;;;1.13;1.00;;;48.00;16.10;;;;;;5034685;28;20378;-73
2023/09/20 14:00:29;;;;;;;1.05;0.95;;;48.30;15.50;;;;;;5032743;28;20102;-73
2023/09/20 14:02:57;;;;;;;0.90;0.90;;;48.10;15.20;;;;;;5032993;28;20041;-73
2023/09/20 14:05:23;;;;;;;1.58;1.48;;;47.70;15.60;;;;;;5032739;28;20413;-73
2023/09/20 14:07:55;;;;;;;1.10;1.00;;;46.80;16.10;;;;;;5034613;28;20104;-73
2023/09/20 14:10:23;;;;;;;0.80;0.80;;;45.60;16.80;;;;;;5032179;28;20513;-73